Central Sierra Snow Lab Weather observations

Data are for 10 minute period ending at time listed.
 Day   Time    Incoming  Reflected   Ave.   Ave.    Ave.    Vector  Max.    Ave.    Total    Snow   
  of    of      Solar     Solar      Air    Rel.    Wind    Wind    Wind   Baro.   Precip.   Depth  
Year   Day     Radiation Radiation   Temp.  Humid.  Speed   Dir.    Gust   Press.                   
2021   (PST)    Kw/m2     Kw/m2       F       %      mph     deg.    mph     mb.     in.      in.   
----------------------------------------------------------------------------------------------------
  25   23:00    0.000     999.000      8.3     85     1.4      28     2.7   777.90   -2.96   165.20  
  25   23:10    0.000     999.000      8.3     85     2.0      33     3.3   778.10   -2.96   165.20  
  25   23:20    0.000     999.000      8.2     85     1.3      31     2.5   778.20   -2.96   165.20  
  25   23:30    0.000     999.000      8.0     85     2.1      24     3.3   778.30   -2.96   165.20  
  25   23:40    0.000     999.000      8.2     85     2.2      24     3.3   778.50   -2.96   165.20  
  25   23:50    0.000     999.000      8.3     85     1.0      27     3.1   778.50   -2.96   171.40  
  26    0:00    0.000     999.000      8.5     85     1.5      30     3.3   778.40   -2.97   169.00  
  26    0:10    0.000     999.000      8.3     85     2.0      30     3.6   778.50   -2.96   176.00  
  26    0:20    0.000     999.000      8.1     85     2.8      26     3.9   778.50   -2.96   175.90  
  26    0:30    0.000     999.000      7.8     85     2.5      33     4.2   778.40   -2.96   175.60  
  26    0:40    0.000     999.000      7.6     85     1.0      32     2.5   778.50   -2.96   171.10  
  26    0:50    0.000     999.000      7.3     84     2.3      35     3.7   778.60   -2.96   167.80  
  26    1:00    0.000     999.000      7.0     84     2.1      31     3.4   778.60   -2.96   165.20  
  26    1:10    0.000     999.000      6.5     84     2.6      31     3.8   778.50   -2.96   175.90  
  26    1:20    0.000     999.000      6.1     84     2.4      30     3.3   778.50   -2.97   175.80  
  26    1:30    0.000     999.000      5.7     84     2.0      29     3.4   778.60   -2.96   176.10  
  26    1:40    0.000     999.000      5.5     84     2.3      29     3.9   778.70   -2.96   176.10  
  26    1:50    0.000     999.000      5.2     84     2.7      29     4.2   778.70   -2.96   176.10  
  26    2:00    0.000     999.000      5.0     84     2.8      30     3.9   778.70   -2.96   176.10  
  26    2:10    0.000     999.000      4.8     84     2.9      28     4.3   778.70   -2.97   176.10  
  26    2:20    0.000     999.000      4.7     84     2.4      28     3.8   778.70   -2.96   176.10  
  26    2:30    0.000     999.000      4.7     84     2.5      28     3.7   778.80   -2.96   175.50  
  26    2:40    0.000     999.000      4.7     84     2.5      29     3.8   778.80   -2.96   173.30  
  26    2:50    0.000     999.000      4.6     84     2.5      30     3.7   778.70   -2.96   174.20  
  26    3:00    0.000     999.000      4.5     84     1.6      32     3.5   778.70   -2.96   175.80  
  26    3:10    0.000     999.000      4.5     84     1.8      30     3.6   778.80   -2.96   175.80  
  26    3:20    0.000     999.000      4.4     84     1.9      31     3.7   778.80   -2.96   176.00  
  26    3:30    0.000     999.000      4.2     84     3.0      30     4.5   778.80   -2.96   176.10  
  26    3:40    0.000     999.000      4.0     83     2.7      29     3.8   778.90   -2.96   176.10  
  26    3:50    0.000     999.000      3.7     83     2.9      28     4.4   779.00   -2.96   176.10  
  26    4:00    0.000     999.000      3.4     83     2.8      29     5.4   778.90   -2.96   176.10  
  26    4:10    0.000     999.000      3.2     82     2.2      29     4.1   778.90   -2.96   176.10  
  26    4:20    0.000     999.000      2.7     82     2.7      27     3.5   778.90   -2.97   176.10  
  26    4:30    0.000     999.000      2.3     82     2.5      29     4.0   779.00   -2.96   176.10  
  26    4:40    0.000     999.000      2.0     82     3.4      27     4.0   779.00   -2.96   176.10  
  26    4:50    0.000     999.000      1.7     82     2.8      29     3.5   779.00   -2.97   176.10  
  26    5:00    0.000     999.000      1.4     82     1.9      31     3.3   779.10   -2.97   176.10  
  26    5:10    0.000     999.000      1.2     82     2.3      31     3.7   779.20   -2.96   176.10  
  26    5:20    0.000     999.000      1.1     82     2.5      32     3.8   779.30   -2.96   176.20  
  26    5:30    0.000     999.000      0.9     82     2.0      32     3.1   779.40   -2.96   176.10  
  26    5:40    0.000     999.000      0.7     81     2.2      31     3.4   779.60   -2.96   176.10  
  26    5:50    0.000     999.000      0.4     81     3.1      29     3.8   779.80   -2.96   176.20  
  26    6:00    0.000     999.000      0.2     81     2.8      30     4.0   779.90   -2.96   176.10  
  26    6:10    0.000     999.000     -0.0     81     2.8      28     3.8   780.00   -2.96   176.10  
  26    6:20    0.000     999.000     -0.2     81     2.7      24     3.8   780.10   -2.96   176.20  
  26    6:30    0.000     999.000     -0.3     81     2.6      28     3.9   780.10   -2.96   176.10  
  26    6:40    0.000     999.000     -0.2     81     3.6      25     4.2   780.10   -2.96   176.20  
  26    6:50    0.000     999.000     -0.2     81     4.0      24     4.7   780.30   -2.96   176.10  
  26    7:00    0.000     999.000     -0.0     81     4.5      24     4.8   780.30   -2.96   176.20  
  26    7:10    0.000     999.000      0.1     81     4.2      23     4.7   780.30   -2.96   176.20  
  26    7:20    0.001     999.000      0.2     81     4.5      24     4.9   780.30   -2.96   176.10  
  26    7:30    0.001     999.000      0.3     81     4.3      25     4.6   780.30   -2.96   176.10  
  26    7:40    0.002     999.000      0.6     81     3.8      25     4.7   780.30   -2.96   176.10  
  26    7:50    0.002     999.000      0.9     81     3.8      29     4.1   780.30   -2.96   176.10  
  26    8:00    0.003     999.000      1.2     82     3.7      26     4.5   780.30   -2.97   176.20  
  26    8:10    0.003     999.000      1.7     82     3.7      22     4.2   780.40   -2.96   176.10  
  26    8:20    0.004     999.000      2.2     82     4.1      27     4.5   780.40   -2.96   176.10  
  26    8:30    0.003     999.000      3.1     83     4.0      26     4.4   780.50   -2.96   176.10  
  26    8:40    0.004     999.000      4.6     85     2.9      28     3.9   780.50   -2.96   176.10  
  26    8:50    0.005     999.000      6.2     86     2.2      28     3.6   780.70   -2.96   176.10  
  26    9:00    0.009     999.000      7.7     86     1.1      28     1.9   780.90   -2.96   176.10  
  26    9:10    0.013     999.000      9.8     86     0.0      25     0.6   781.00   -2.96   176.10  
  26    9:20    0.018     999.000     13.0     85     0.5     202     2.9   781.00   -2.96   176.10  
  26    9:30    0.028     999.000     16.2     78     1.0     193     4.0   781.10   -2.96   176.10  
  26    9:40    0.084     999.000     17.1     75     2.0     197     4.6   781.30   -2.96   176.00  
  26    9:50    0.072     999.000     18.7     73     2.3     218     6.7   781.30   -2.96   169.00  
  26   10:00    0.088     999.000     19.0     74     2.6     202     6.0   781.40   -2.96   165.00  
  26   10:10    0.078     999.000     19.6     73     3.5     196    10.2   781.30   -2.96   165.20  
  26   10:20    0.065     999.000     19.5     74     2.9     208     8.1   781.40   -2.96   165.20  
  26   10:30    0.064     999.000     20.6     72     2.4     227     5.5   781.40   -2.96   165.10  
  26   10:40    0.075     999.000     20.8     70     2.3     224     5.4   781.40   -2.96   165.40  
  26   10:50    0.075     999.000     21.2     70     2.8     208     7.0   781.50   -2.96   165.40  
  26   11:00    0.079     999.000     21.0     70     3.7     201     8.1   781.60   -2.96   165.70  
  26   11:10    0.085     999.000     20.8     69     4.1     200     7.6   781.60   -2.96   165.70  
  26   11:20    0.081     999.000     21.7     66     3.3     222     8.9   781.50   -2.96   165.40  
  26   11:30    0.072     999.000     21.8     66     3.4     217     8.7   781.40   -2.96   165.40  
  26   11:40    0.062     999.000     21.8     64     2.7     229     9.0   781.40   -2.96   165.60  
  26   11:50    0.054     999.000     21.0     64     3.0     224     7.8   781.30   -2.96   165.70  
  26   12:00    0.055     999.000     20.8     64     3.0     220     7.5   781.20   -2.96   165.70  
  26   12:10    0.045     999.000     20.6     65     2.6     225     6.7   781.00   -2.96   165.70  
  26   12:20    0.046     999.000     20.4     66     3.2     218     9.7   781.00   -2.96   165.70  
  26   12:30    0.050     999.000     20.4     66     3.0     201     7.1   781.00   -2.96   165.80  
  26   12:40    0.057     999.000     21.3     64     3.5     223    10.1   780.90   -2.96   165.70  
  26   12:50    0.056     999.000     21.8     63     3.3     207     7.5   780.90   -2.96   165.70  
  26   13:00    0.054     999.000     21.4     62     3.7     220    14.3   780.90   -2.96   165.70  
  26   13:10    0.048     999.000     20.8     61     4.3     211    11.2   780.90   -2.96   165.70  
  26   13:20    0.046     999.000     20.0     66     4.3     210     8.8   780.90   -2.96   165.80  
  26   13:30    0.040     999.000     20.1     67     3.5     226     9.2   780.90   -2.96   165.80  
  26   13:40    0.038     999.000     19.9     68     3.5     220     9.4   780.90   -2.96   165.80  
  26   13:50    0.035     999.000     19.9     69     3.7     211    11.1   780.90   -2.96   165.80  
  26   14:00    0.031     999.000     19.4     68     3.9     220    12.0   780.90   -2.96   165.80  
  26   14:10    0.030     999.000     19.1     68     3.7     202     7.3   780.90   -2.96   165.70  
  26   14:20    0.028     999.000     19.1     69     3.2     225     8.2   780.80   -2.96   165.10  
  26   14:30    0.025     999.000     19.0     68     3.5     209     8.6   780.90   -2.96   170.70  
  26   14:40    0.022     999.000     18.7     68     3.1     212     7.7   780.90   -2.96   166.60  
  26   14:50    0.023     999.000     18.7     66     3.0     209    10.9   780.90   -2.96   165.20  
  26   15:00    0.025     999.000     18.8     68     2.7     212     9.0   780.80   -2.96   165.20  
  26   15:10    0.024     999.000     18.9     68     3.1     224     7.4   780.70   -2.96   165.20  
  26   15:20    0.021     999.000     18.8     67     3.5     213     8.7   780.70   -2.96   165.30  
  26   15:30    0.022     999.000     18.8     67     3.5     203    11.0   780.60   -2.96   165.30  
  26   15:40    0.017     999.000     18.7     69     2.7     217     6.7   780.50   -2.96   165.30  
  26   15:50    0.016     999.000     18.5     70     2.7     220    10.0   780.40   -2.96   165.30  
  26   16:00    0.015     999.000     18.5     70     2.7     244     8.4   780.30   -2.96   165.30  
  26   16:10    0.011     999.000     18.4     70     3.1     232     8.8   780.30   -2.96   165.30  
  26   16:20    0.008     999.000     18.1     68     3.5     208     9.6   780.20   -2.96   165.30  
  26   16:30    0.007     999.000     18.0     70     2.5     224    12.1   780.10   -2.96   165.30  
  26   16:40    0.006     999.000     17.9     70     2.7     238     6.4   780.00   -2.96   165.30  
  26   16:50    0.004     999.000     17.8     70     3.2     218     9.9   780.10   -2.96   165.30  
  26   17:00    0.002     999.000     17.4     72     3.6     233    10.6   780.00   -2.96   165.30  
  26   17:10    0.001     999.000     17.3     69     3.3     238     7.9   779.90   -2.96   165.30  
  26   17:20    0.000     999.000     17.1     68     2.8     235     8.2   779.70   -2.96   165.30  
  26   17:30    0.000     999.000     17.0     67     2.8     245     7.9   779.60   -2.96   165.30  
  26   17:40    0.000     999.000     17.0     67     3.0     227     8.0   779.40   -2.96   165.30  
  26   17:50    0.000     999.000     17.1     69     3.5     240    12.8   779.40   -2.96   165.30  
  26   18:00    0.000     999.000     17.0     72     3.3     238     6.9   779.40   -2.96   165.30  
  26   18:10    0.000     999.000     17.0     74     4.1     234    12.6   779.40   -2.96   165.30  
  26   18:20    0.000     999.000     16.8     77     3.8     224    10.9   779.30   -2.96   165.30  
  26   18:30    0.000     999.000     16.7     79     3.0     228     8.1   779.30   -2.96   165.30  
  26   18:40    0.000     999.000     16.4     83     2.8     233     7.0   779.20   -2.96   165.30  
  26   18:50    0.000     999.000     16.3     85     3.1     226     7.1   779.20   -2.96   165.30  
  26   19:00    0.000     999.000     16.3     86     2.8     238     7.5   779.10   -2.96   165.30  
  26   19:10    0.000     999.000     16.3     87     3.2     234     8.2   779.00   -2.96   165.30  
  26   19:20    0.000     999.000     16.4     87     1.9     224     6.8   778.80   -2.96   165.10  
  26   19:30    0.000     999.000     16.6     87     2.3     240     6.6   778.70   -2.96   165.30  
  26   19:40    0.000     999.000     16.9     87     2.5     239     7.7   778.60   -2.96   165.20  
  26   19:50    0.000     999.000     17.1     87     3.0     244     7.7   778.50   -2.96   165.30  
  26   20:00    0.000     999.000     17.3     88     2.3     237     5.9   778.40   -2.96   165.30  
  26   20:10    0.000     999.000     17.5     88     2.6     251    11.8   778.20   -2.96   165.30  
  26   20:20    0.000     999.000     17.8     89     1.9     219     7.1   778.20   -2.96   165.30  
  26   20:30    0.000     999.000     18.1     89     2.4     250     6.2   778.10   -2.96   165.10  
  26   20:40    0.000     999.000     18.5     89     2.1     256    11.0   778.00   -2.96   167.30  
  26   20:50    0.000     999.000     19.1     89     2.4     253     7.2   777.90   -2.96   175.60  
  26   21:00    0.000     999.000     19.5     89     2.0     251     6.2   777.80   -2.96   176.00  
  26   21:10    0.000     999.000     19.8     90     2.4     222     7.8   777.60   -2.96   176.00  
  26   21:20    0.000     999.000     20.3     90     3.2     233     8.9   777.50   -2.96   173.50  
  26   21:30    0.000     999.000     20.6     91     3.4     228    14.2   777.40   -2.96   175.70  
  26   21:40    0.000     999.000     20.8     93     2.9     241     8.9   777.30   -2.96   175.90  
  26   21:50    0.000     999.000     21.3     95     3.7     216     8.8   777.10   -2.96   171.50  
  26   22:00    0.000     999.000     21.8     95     4.2     238    11.8   777.10   -2.96   170.50  
  26   22:10    0.000     999.000     22.0     95     3.5     204     9.9   777.00   -2.97   170.70  
  26   22:20    0.000     999.000     22.3     95     4.6     225    11.4   776.90   -2.96   170.10  
  26   22:30    0.000     999.000     22.6     95     3.5     226    15.7   776.90   -2.96   176.00  
  26   22:40    0.000     999.000     23.0     95     4.0     234    11.5   776.80   -2.97   176.00  
  26   22:50    0.000     999.000     23.1     95     3.8     220    17.9   776.70   -2.96   173.50  

Return to Central Sierra Snow Lab graphs page.


Western Regional Climate Center,wrcc@dri.edu